createdAt,value
2023-05-15T00:00:40.225Z,19.43
2023-05-15T00:03:13.007Z,24.23
2023-05-15T00:05:43.517Z,25.47
2023-05-15T00:08:13.511Z,28.93
2023-05-15T00:10:50.766Z,25.33
2023-05-15T00:13:30.427Z,23.40
2023-05-15T00:16:00.596Z,24.80
2023-05-15T00:18:33.806Z,23.17
2023-05-15T00:21:03.866Z,27.27
2023-05-15T00:23:34.089Z,25.80
2023-05-15T00:26:04.276Z,23.90
2023-05-15T00:28:34.188Z,25.20
2023-05-15T00:31:04.267Z,26.37
2023-05-15T00:33:37.111Z,28.57
2023-05-15T00:36:07.404Z,27.67
2023-05-15T00:38:37.722Z,27.50
2023-05-15T00:41:09.528Z,28.93
2023-05-15T00:43:41.747Z,27.07
2023-05-15T00:46:13.414Z,28.63
2023-05-15T00:48:47.605Z,29.30
2023-05-15T00:51:17.713Z,27.73
2023-05-15T00:53:47.905Z,30.40
2023-05-15T00:56:19.951Z,31.33
2023-05-15T00:58:52.316Z,30.60
2023-05-15T01:01:23.011Z,32.37
2023-05-15T01:03:55.679Z,33.53
2023-05-15T01:06:25.619Z,30.03
2023-05-15T01:08:59.751Z,31.30
2023-05-15T01:11:36.585Z,31.77
2023-05-15T01:14:08.501Z,31.40
2023-05-15T01:16:39.346Z,29.53
2023-05-15T01:19:12.040Z,32.87
2023-05-15T01:22:18.640Z,34.60
2023-05-15T01:25:32.700Z,33.20
2023-05-15T01:28:12.186Z,30.97
2023-05-15T01:30:46.188Z,28.63
2023-05-15T01:33:23.995Z,27.87
2023-05-15T01:36:02.077Z,28.43
2023-05-15T01:38:40.300Z,28.00
2023-05-15T01:41:18.013Z,33.83
2023-05-15T01:43:55.953Z,28.17
2023-05-15T01:46:27.990Z,27.17
2023-05-15T01:49:01.858Z,32.70
2023-05-15T01:51:34.026Z,26.93
2023-05-15T01:54:05.242Z,28.27
2023-05-15T01:56:36.130Z,28.10
2023-05-15T01:59:09.969Z,25.03
2023-05-15T02:01:41.276Z,29.57
2023-05-15T02:04:12.727Z,34.77
2023-05-15T02:06:43.957Z,33.67
2023-05-15T02:09:14.145Z,28.97
2023-05-15T02:11:45.054Z,31.93
2023-05-15T02:14:19.262Z,30.07
2023-05-15T02:16:49.301Z,31.50
2023-05-15T02:19:19.323Z,30.27
2023-05-15T02:21:49.749Z,31.13
2023-05-15T02:24:19.986Z,30.97
2023-05-15T02:26:57.837Z,37.93
2023-05-15T02:29:37.399Z,32.63
2023-05-15T02:32:17.505Z,33.03
2023-05-15T02:34:56.408Z,29.43
2023-05-15T02:37:41.973Z,32.80
2023-05-15T02:40:15.664Z,39.30
2023-05-15T02:42:48.674Z,34.77
2023-05-15T02:45:22.315Z,32.77
2023-05-15T02:47:53.718Z,30.93
2023-05-15T02:50:24.164Z,31.67
2023-05-15T02:52:54.188Z,32.57
2023-05-15T02:55:24.222Z,33.13
2023-05-15T02:57:54.552Z,29.67
2023-05-15T03:00:27.334Z,31.10
2023-05-15T03:02:57.447Z,32.23
2023-05-15T03:05:27.917Z,31.67
2023-05-15T03:08:00.480Z,35.27
2023-05-15T03:10:30.554Z,32.90
2023-05-15T03:13:01.304Z,33.40
2023-05-15T03:15:34.059Z,34.27
2023-05-15T03:18:04.055Z,31.73
2023-05-15T03:20:34.067Z,33.33
2023-05-15T03:23:04.163Z,33.97
2023-05-15T03:25:34.402Z,31.00
2023-05-15T03:28:04.373Z,28.27
2023-05-15T03:30:36.839Z,31.20
2023-05-15T03:33:06.980Z,30.60
2023-05-15T03:35:37.044Z,38.00
2023-05-15T03:38:07.183Z,27.73
2023-05-15T03:40:37.384Z,28.07
2023-05-15T03:43:07.438Z,31.63
2023-05-15T03:45:40.341Z,32.43
2023-05-15T03:48:10.732Z,30.53
2023-05-15T03:50:40.749Z,31.00
2023-05-15T03:53:10.821Z,33.10
2023-05-15T03:55:40.913Z,33.43
2023-05-15T03:58:10.910Z,34.60
2023-05-15T04:00:44.605Z,43.20
2023-05-15T04:03:15.006Z,47.77
2023-05-15T04:05:45.202Z,54.60
2023-05-15T04:08:15.299Z,43.40
2023-05-15T04:10:45.243Z,44.47
2023-05-15T04:13:15.179Z,48.93
2023-05-15T04:15:47.781Z,48.37
2023-05-15T04:18:17.893Z,49.63
2023-05-15T04:20:47.836Z,50.57
2023-05-15T04:23:17.744Z,53.10
2023-05-15T04:25:48.511Z,54.00
2023-05-15T04:28:20.465Z,62.63
2023-05-15T04:30:53.208Z,57.27
2023-05-15T04:33:23.632Z,58.23
2023-05-15T04:35:54.230Z,58.57
2023-05-15T04:38:24.227Z,57.53
2023-05-15T04:40:54.776Z,56.07
2023-05-15T04:43:24.841Z,54.23
2023-05-15T04:45:57.867Z,56.63
2023-05-15T04:48:27.948Z,58.93
2023-05-15T04:50:58.033Z,69.63
2023-05-15T04:53:28.004Z,69.03
2023-05-15T04:55:58.081Z,78.40
2023-05-15T04:58:28.085Z,81.57
2023-05-15T05:01:03.444Z,86.23
2023-05-15T05:03:33.992Z,90.97
2023-05-15T05:06:04.292Z,86.60
2023-05-15T05:08:34.262Z,74.20
2023-05-15T05:11:04.514Z,66.70
2023-05-15T05:13:34.378Z,56.60
2023-05-15T05:16:07.597Z,49.93
2023-05-15T05:18:37.651Z,41.07
2023-05-15T05:21:07.858Z,43.00
2023-05-15T05:23:37.805Z,41.33
2023-05-15T05:26:07.935Z,40.93
2023-05-15T05:28:38.053Z,41.67
2023-05-15T05:31:10.700Z,40.27
2023-05-15T05:33:40.723Z,40.90
2023-05-15T05:36:14.130Z,35.13
2023-05-15T05:38:44.738Z,31.70
2023-05-15T05:41:16.299Z,32.90
2023-05-15T05:43:46.555Z,33.30
2023-05-15T05:46:19.487Z,33.43
2023-05-15T05:48:49.414Z,30.13
2023-05-15T05:51:21.783Z,31.27
2023-05-15T05:53:51.900Z,31.77
2023-05-15T05:56:22.077Z,30.97
2023-05-15T05:58:52.515Z,29.70
2023-05-15T06:01:25.883Z,26.70
2023-05-15T06:03:56.105Z,33.60
2023-05-15T06:06:26.492Z,29.30
2023-05-15T06:08:56.774Z,29.77
2023-05-15T06:11:27.317Z,29.43
2023-05-15T06:14:03.087Z,29.17
2023-05-15T06:16:35.981Z,26.30
2023-05-15T06:19:06.238Z,28.30
2023-05-15T06:21:37.039Z,29.60
2023-05-15T06:24:08.006Z,27.10
2023-05-15T06:26:39.817Z,32.50
2023-05-15T06:29:09.841Z,31.70
2023-05-15T06:31:42.576Z,29.57
2023-05-15T06:34:12.867Z,31.83
2023-05-15T06:36:42.834Z,26.97
2023-05-15T06:39:13.320Z,35.77
2023-05-15T06:41:43.610Z,29.90
2023-05-15T06:44:16.104Z,32.00
2023-05-15T06:46:49.013Z,32.93
2023-05-15T06:49:19.028Z,28.73
2023-05-15T06:51:49.238Z,28.13
2023-05-15T06:54:19.342Z,24.43
2023-05-15T06:56:49.355Z,21.20
2023-05-15T06:59:19.372Z,32.77
2023-05-15T07:01:52.001Z,26.57
2023-05-15T07:04:22.106Z,22.73
2023-05-15T07:06:52.020Z,25.60
2023-05-15T07:09:22.037Z,27.23
2023-05-15T07:11:52.146Z,28.47
2023-05-15T07:14:22.070Z,36.80
2023-05-15T07:16:54.636Z,43.00
2023-05-15T07:19:24.675Z,45.17
2023-05-15T07:21:54.767Z,40.47
2023-05-15T07:24:24.709Z,41.87
2023-05-15T07:26:59.085Z,40.73
2023-05-15T07:29:29.495Z,28.90
2023-05-15T07:32:02.132Z,27.40
2023-05-15T07:34:31.968Z,41.90
2023-05-15T07:37:02.947Z,35.83
2023-05-15T07:39:33.068Z,31.53
2023-05-15T07:42:03.009Z,32.67
2023-05-15T07:44:32.859Z,29.20
2023-05-15T07:47:05.336Z,32.03
2023-05-15T07:49:35.661Z,32.97
2023-05-15T07:52:05.612Z,34.00
2023-05-15T07:54:36.515Z,43.03
2023-05-15T07:57:06.690Z,39.47
2023-05-15T07:59:36.721Z,44.50
2023-05-15T08:02:09.760Z,35.03
2023-05-15T08:04:39.758Z,31.65
2023-05-15T08:07:10.549Z,34.38
2023-05-15T08:09:40.937Z,32.97
2023-05-15T08:12:21.437Z,31.40
2023-05-15T08:14:55.386Z,30.77
2023-05-15T08:17:29.219Z,34.42
2023-05-15T08:19:59.365Z,25.73
2023-05-15T08:22:30.681Z,30.27
2023-05-15T08:25:01.167Z,31.40
2023-05-15T08:27:31.137Z,21.13
2023-05-15T08:30:01.069Z,29.80
2023-05-15T08:32:33.683Z,38.78
2023-05-15T08:35:03.677Z,31.02
2023-05-15T08:37:33.839Z,24.60
2023-05-15T08:40:05.486Z,24.92
2023-05-15T08:42:38.787Z,26.95
2023-05-15T08:45:10.907Z,20.30
2023-05-15T08:47:45.118Z,24.65
2023-05-15T08:50:17.404Z,27.45
2023-05-15T08:52:48.676Z,24.10
2023-05-15T08:55:20.047Z,21.40
2023-05-15T08:57:52.005Z,23.23
2023-05-15T09:00:26.959Z,23.15
2023-05-15T09:03:03.235Z,23.80
2023-05-15T09:05:33.857Z,21.55
2023-05-15T09:08:06.729Z,23.85
2023-05-15T09:10:37.614Z,20.85
2023-05-15T09:13:11.040Z,22.50
2023-05-15T09:15:41.151Z,19.58
2023-05-15T09:18:14.509Z,16.70
2023-05-15T09:20:46.753Z,19.55
2023-05-15T09:23:27.877Z,17.80
2023-05-15T09:25:58.256Z,13.90
2023-05-15T09:28:31.033Z,19.75
2023-05-15T09:31:03.194Z,17.35
2023-05-15T09:33:39.734Z,19.30
2023-05-15T09:36:12.910Z,13.55
2023-05-15T09:38:48.496Z,13.73
2023-05-15T09:41:27.338Z,18.27
2023-05-15T09:43:58.090Z,17.73
2023-05-15T09:46:28.141Z,19.00
2023-05-15T09:49:00.787Z,22.85
2023-05-15T09:51:30.884Z,19.00
2023-05-15T09:54:01.154Z,17.38
2023-05-15T09:56:31.490Z,16.73
2023-05-15T09:59:02.535Z,14.00
2023-05-15T10:01:32.499Z,14.20
2023-05-15T10:04:06.698Z,13.63
2023-05-15T10:06:40.642Z,12.70
2023-05-15T10:09:13.121Z,15.65
2023-05-15T10:11:44.658Z,20.45
2023-05-15T10:14:16.586Z,22.90
2023-05-15T10:16:48.023Z,13.60
2023-05-15T10:19:25.683Z,13.95
2023-05-15T10:21:56.756Z,15.75
2023-05-15T10:24:28.596Z,14.10
2023-05-15T10:26:59.764Z,16.70
2023-05-15T10:29:32.288Z,15.05
2023-05-15T10:32:04.446Z,17.08
2023-05-15T10:34:37.729Z,16.50
2023-05-15T10:37:09.027Z,12.90
2023-05-15T10:39:42.451Z,16.67
2023-05-15T10:42:13.310Z,13.07
2023-05-15T10:44:43.089Z,19.13
2023-05-15T10:47:13.823Z,15.80
2023-05-15T10:49:46.587Z,13.20
2023-05-15T10:52:16.647Z,10.40
2023-05-15T10:54:46.542Z,11.00
2023-05-15T10:57:17.834Z,14.00
2023-05-15T10:59:50.336Z,15.82
2023-05-15T11:02:24.726Z,11.35
2023-05-15T11:05:01.927Z,11.77
2023-05-15T11:07:32.080Z,10.65
2023-05-15T11:10:02.785Z,9.07
2023-05-15T11:12:58.704Z,11.63
2023-05-15T11:15:28.682Z,12.88
2023-05-15T11:18:09.116Z,9.90
2023-05-15T11:20:44.955Z,14.25
2023-05-15T11:23:14.951Z,12.15
2023-05-15T11:25:44.863Z,10.80
2023-05-15T11:28:24.924Z,9.32
2023-05-15T11:30:56.105Z,11.82
2023-05-15T11:33:25.945Z,9.68
2023-05-15T11:36:04.414Z,13.07
2023-05-15T11:38:40.788Z,12.10
2023-05-15T11:41:34.056Z,14.13
2023-05-15T11:44:04.422Z,12.35
2023-05-15T11:46:36.379Z,13.70
2023-05-15T11:49:06.588Z,15.68
2023-05-15T11:51:43.396Z,13.05
2023-05-15T11:54:14.573Z,10.85
2023-05-15T11:56:46.729Z,14.02
2023-05-15T11:59:17.861Z,9.70
2023-05-15T12:01:49.329Z,10.80
2023-05-15T12:04:20.600Z,16.50
2023-05-15T12:06:54.340Z,15.07
2023-05-15T12:09:27.618Z,15.40
2023-05-15T12:11:58.817Z,10.15
2023-05-15T12:14:31.963Z,13.35
2023-05-15T12:17:04.584Z,11.32
2023-05-15T12:19:34.962Z,11.77
2023-05-15T12:22:08.631Z,13.52
2023-05-15T12:24:41.980Z,12.02
2023-05-15T12:27:12.836Z,14.68
2023-05-15T12:29:45.465Z,12.70
2023-05-15T12:32:15.827Z,13.45
2023-05-15T12:34:46.051Z,18.77
2023-05-15T12:37:22.023Z,18.27
2023-05-15T12:39:57.001Z,16.25
2023-05-15T12:42:27.494Z,16.70
2023-05-15T12:44:58.600Z,15.75
2023-05-15T12:47:29.985Z,17.38
2023-05-15T12:50:00.270Z,19.73
2023-05-15T12:52:34.410Z,13.18
2023-05-15T12:55:04.324Z,15.23
2023-05-15T12:57:34.434Z,15.18
2023-05-15T13:00:13.316Z,14.55
2023-05-15T13:02:46.677Z,20.85
2023-05-15T13:05:16.821Z,11.95
2023-05-15T13:07:49.408Z,18.73
2023-05-15T13:10:19.420Z,16.35
2023-05-15T13:12:49.717Z,16.70
2023-05-15T13:15:31.163Z,12.85
2023-05-15T13:18:04.597Z,15.88
2023-05-15T13:20:37.748Z,21.35
2023-05-15T13:23:11.113Z,24.35
2023-05-15T13:25:40.995Z,20.83
2023-05-15T13:28:12.184Z,21.58
2023-05-15T13:30:45.404Z,26.00
2023-05-15T13:33:15.961Z,25.42
2023-05-15T13:35:46.181Z,24.38
2023-05-15T13:38:18.743Z,22.23
2023-05-15T13:40:48.615Z,23.05
2023-05-15T13:43:18.620Z,23.05
2023-05-15T13:45:48.876Z,21.92
2023-05-15T13:48:18.936Z,21.38
2023-05-15T13:50:48.829Z,21.75
2023-05-15T13:53:21.622Z,19.00
2023-05-15T13:55:51.569Z,15.73
2023-05-15T13:58:21.771Z,15.98
2023-05-15T14:00:52.130Z,14.05
2023-05-15T14:03:22.134Z,14.43
2023-05-15T14:05:52.098Z,15.35
2023-05-15T14:08:27.117Z,21.27
2023-05-15T14:10:56.945Z,14.57
2023-05-15T14:13:26.847Z,15.23
2023-05-15T14:15:56.847Z,16.42
2023-05-15T14:18:26.761Z,18.42
2023-05-15T14:20:56.967Z,25.08
2023-05-15T14:23:29.382Z,20.45
2023-05-15T14:25:59.210Z,21.10
2023-05-15T14:28:29.171Z,22.17
2023-05-15T14:30:58.977Z,19.13
2023-05-15T14:33:29.433Z,18.85
2023-05-15T14:36:01.904Z,17.90
2023-05-15T14:38:34.548Z,19.33
2023-05-15T14:41:04.435Z,24.60
2023-05-15T14:43:34.275Z,22.27
2023-05-15T14:46:04.201Z,18.15
2023-05-15T14:48:34.193Z,19.35
2023-05-15T14:51:04.260Z,18.55
2023-05-15T14:53:37.712Z,18.65
2023-05-15T14:56:08.318Z,17.38
2023-05-15T14:58:38.169Z,22.05
2023-05-15T15:01:08.671Z,21.48
2023-05-15T15:03:38.794Z,17.80
2023-05-15T15:06:09.282Z,16.13
2023-05-15T15:08:42.029Z,16.48
2023-05-15T15:11:12.079Z,14.38
2023-05-15T15:13:41.892Z,19.15
2023-05-15T15:16:11.878Z,19.23
2023-05-15T15:18:41.854Z,18.08
2023-05-15T15:21:15.114Z,20.02
2023-05-15T15:23:48.646Z,26.13
2023-05-15T15:26:19.153Z,20.65
2023-05-15T15:28:49.173Z,23.10
2023-05-15T15:31:20.714Z,23.38
2023-05-15T15:33:51.531Z,23.83
2023-05-15T15:36:21.616Z,26.88
2023-05-15T15:38:54.112Z,26.20
2023-05-15T15:41:27.139Z,26.73
2023-05-15T15:43:56.999Z,28.63
2023-05-15T15:46:27.381Z,30.00
2023-05-15T15:48:57.420Z,35.15
2023-05-15T15:51:27.284Z,25.95
2023-05-15T15:53:59.727Z,31.05
2023-05-15T15:56:29.849Z,25.52
2023-05-15T15:58:59.699Z,27.83
2023-05-15T16:01:30.350Z,26.85
2023-05-15T16:04:00.311Z,28.52
2023-05-15T16:06:30.254Z,23.25
2023-05-15T16:09:02.951Z,21.92
2023-05-15T16:11:32.988Z,25.55
2023-05-15T16:14:02.970Z,19.75
2023-05-15T16:16:32.969Z,27.90
2023-05-15T16:19:02.871Z,25.02
2023-05-15T16:21:32.866Z,24.00
2023-05-15T16:24:05.659Z,22.52
2023-05-15T16:26:36.178Z,24.05
2023-05-15T16:29:06.291Z,23.92
2023-05-15T16:31:36.670Z,22.83
2023-05-15T16:34:06.886Z,25.80
2023-05-15T16:36:37.006Z,18.75
2023-05-15T16:39:10.745Z,20.00
2023-05-15T16:41:40.724Z,22.20
2023-05-15T16:44:11.321Z,21.52
2023-05-15T16:46:41.781Z,22.13
2023-05-15T16:49:11.650Z,24.52
2023-05-15T16:51:41.703Z,23.13
2023-05-15T16:54:16.463Z,20.50
2023-05-15T16:56:46.306Z,19.58
2023-05-15T16:59:16.535Z,16.27
2023-05-15T17:01:46.426Z,21.52
2023-05-15T17:04:16.879Z,23.55
2023-05-15T17:06:46.785Z,25.77
2023-05-15T17:09:19.464Z,21.25
2023-05-15T17:11:49.322Z,17.05
2023-05-15T17:14:19.490Z,17.13
2023-05-15T17:16:49.389Z,14.25
2023-05-15T17:19:19.547Z,14.13
2023-05-15T17:21:49.388Z,14.65
2023-05-15T17:24:22.013Z,14.88
2023-05-15T17:26:52.031Z,15.32
2023-05-15T17:29:21.882Z,17.55
2023-05-15T17:31:51.862Z,15.00
2023-05-15T17:34:21.802Z,18.15
2023-05-15T17:36:51.724Z,21.90
2023-05-15T17:39:27.519Z,23.15
2023-05-15T17:41:57.512Z,17.38
2023-05-15T17:44:30.015Z,20.52
2023-05-15T17:47:00.185Z,20.38
2023-05-15T17:49:30.065Z,23.65
2023-05-15T17:51:59.999Z,21.52
2023-05-15T17:54:32.675Z,22.52
2023-05-15T17:57:02.607Z,24.63
2023-05-15T17:59:32.724Z,18.42
2023-05-15T18:02:02.867Z,22.67
2023-05-15T18:04:32.964Z,21.25
2023-05-15T18:07:05.327Z,20.83
2023-05-15T18:09:39.517Z,21.95
2023-05-15T18:12:10.373Z,22.88
2023-05-15T18:14:40.559Z,19.30
2023-05-15T18:17:12.123Z,22.08
2023-05-15T18:19:45.025Z,20.27
2023-05-15T18:22:15.884Z,18.88
2023-05-15T18:24:48.424Z,17.92
2023-05-15T18:27:18.400Z,17.52
2023-05-15T18:29:48.248Z,20.10
2023-05-15T18:32:19.576Z,19.65
2023-05-15T18:34:49.917Z,20.65
2023-05-15T18:37:19.955Z,16.38
2023-05-15T18:39:52.512Z,19.02
2023-05-15T18:42:22.481Z,17.45
2023-05-15T18:44:52.442Z,17.90
2023-05-15T18:47:25.994Z,15.27
2023-05-15T18:49:58.799Z,15.15
2023-05-15T18:52:29.589Z,17.90
2023-05-15T18:55:04.386Z,15.93
2023-05-15T18:57:34.653Z,17.65
2023-05-15T19:00:04.836Z,17.70
2023-05-15T19:02:35.453Z,15.53
2023-05-15T19:05:06.578Z,16.27
2023-05-15T19:07:36.801Z,17.02
2023-05-15T19:10:11.412Z,15.93
2023-05-15T19:12:41.317Z,18.10
2023-05-15T19:15:17.106Z,15.68
2023-05-15T19:17:47.032Z,14.45
2023-05-15T19:20:17.364Z,12.20
2023-05-15T19:22:47.409Z,17.30
2023-05-15T19:25:19.902Z,13.43
2023-05-15T19:27:50.144Z,15.67
2023-05-15T19:30:20.146Z,11.05
2023-05-15T19:32:50.121Z,14.30
2023-05-15T19:35:20.260Z,10.50
2023-05-15T19:37:50.463Z,12.40
2023-05-15T19:40:23.112Z,12.18
2023-05-15T19:42:53.078Z,12.03
2023-05-15T19:45:23.032Z,14.98
2023-05-15T19:47:53.000Z,9.55
2023-05-15T19:50:22.949Z,11.13
2023-05-15T19:52:52.907Z,12.37
2023-05-15T19:55:28.584Z,13.13
2023-05-15T19:57:59.310Z,13.93
2023-05-15T20:00:32.618Z,9.60
2023-05-15T20:03:02.978Z,8.37
2023-05-15T20:05:33.197Z,8.67
2023-05-15T20:08:03.121Z,11.73
2023-05-15T20:10:36.101Z,11.40
2023-05-15T20:13:06.907Z,10.73
2023-05-15T20:15:40.205Z,12.27
2023-05-15T20:18:10.479Z,14.40
2023-05-15T20:20:40.407Z,11.30
2023-05-15T20:23:10.382Z,9.30
2023-05-15T20:25:42.895Z,9.23
2023-05-15T20:28:12.830Z,8.93
2023-05-15T20:30:42.994Z,9.33
2023-05-15T20:33:12.899Z,10.50
2023-05-15T20:35:43.664Z,10.23
2023-05-15T20:38:14.097Z,10.27
2023-05-15T20:40:47.159Z,11.53
2023-05-15T20:43:17.185Z,14.30
2023-05-15T20:45:47.162Z,11.60
2023-05-15T20:48:17.389Z,10.60
2023-05-15T20:50:47.306Z,12.53
2023-05-15T20:53:17.342Z,8.70
2023-05-15T20:55:50.004Z,9.93
2023-05-15T20:58:20.065Z,8.00
2023-05-15T21:00:50.028Z,9.90
2023-05-15T21:03:20.419Z,8.13
2023-05-15T21:05:51.418Z,8.63
2023-05-15T21:08:21.651Z,9.30
2023-05-15T21:10:55.735Z,9.67
2023-05-15T21:13:25.761Z,9.80
2023-05-15T21:15:55.742Z,9.80
2023-05-15T21:18:25.603Z,10.77
2023-05-15T21:20:55.419Z,10.30
2023-05-15T21:23:25.331Z,11.40
2023-05-15T21:26:00.528Z,10.30
2023-05-15T21:28:30.906Z,11.67
2023-05-15T21:31:00.907Z,9.53
2023-05-15T21:33:30.845Z,9.97
2023-05-15T21:36:00.747Z,8.67
2023-05-15T21:38:30.818Z,9.63
2023-05-15T21:41:04.025Z,8.87
2023-05-15T21:43:36.587Z,9.93
2023-05-15T21:46:06.924Z,10.30
2023-05-15T21:48:36.925Z,9.70
2023-05-15T21:51:09.885Z,10.73
2023-05-15T21:53:39.829Z,10.77
2023-05-15T21:56:12.608Z,9.23
2023-05-15T21:58:42.490Z,11.03
2023-05-15T22:01:12.427Z,10.20
2023-05-15T22:03:42.503Z,10.07
2023-05-15T22:06:12.526Z,9.43
2023-05-15T22:08:42.405Z,7.43
2023-05-15T22:11:15.620Z,8.17
2023-05-15T22:13:45.636Z,9.77
2023-05-15T22:16:19.578Z,9.23
2023-05-15T22:18:49.995Z,9.87
2023-05-15T22:21:20.057Z,13.77
2023-05-15T22:23:50.041Z,11.07
2023-05-15T22:26:23.565Z,10.67
2023-05-15T22:28:57.787Z,11.93
2023-05-15T22:31:27.733Z,11.37
2023-05-15T22:33:57.633Z,7.20
2023-05-15T22:36:27.447Z,7.37
2023-05-15T22:38:57.316Z,9.03
2023-05-15T22:41:29.725Z,9.00
2023-05-15T22:43:59.562Z,10.17
2023-05-15T22:46:31.921Z,8.33
2023-05-15T22:49:02.371Z,9.23
2023-05-15T22:51:33.905Z,9.57
2023-05-15T22:54:03.904Z,13.23
2023-05-15T22:56:36.654Z,10.57
2023-05-15T22:59:06.493Z,13.37
2023-05-15T23:01:36.303Z,13.00
2023-05-15T23:04:06.557Z,12.03
2023-05-15T23:06:36.738Z,11.63
2023-05-15T23:09:07.944Z,10.77
2023-05-15T23:11:40.852Z,13.80
2023-05-15T23:14:17.498Z,14.07
2023-05-15T23:16:47.581Z,11.40
2023-05-15T23:19:17.538Z,12.63
2023-05-15T23:21:47.499Z,10.53
2023-05-15T23:24:17.406Z,10.30
2023-05-15T23:26:49.878Z,9.40
2023-05-15T23:29:19.988Z,10.37
2023-05-15T23:31:50.233Z,9.60
2023-05-15T23:34:20.124Z,7.90
2023-05-15T23:36:49.971Z,7.80
2023-05-15T23:39:19.801Z,6.53
2023-05-15T23:41:52.255Z,8.40
2023-05-15T23:44:24.664Z,6.00
2023-05-15T23:46:54.633Z,5.30
2023-05-15T23:49:24.504Z,5.70
2023-05-15T23:51:54.653Z,7.53
2023-05-15T23:54:24.476Z,6.30
2023-05-15T23:56:56.940Z,5.57
2023-05-15T23:59:26.941Z,4.83
